sensor_id;sensor_type;location;lat;lon;timestamp;pressure;altitude;pressure_sealevel;temperature;humidity
72116;BME280;59991;52.140;5.428;2022-11-21T00:00:13;100630.22;;;2.00;97.58
72116;BME280;59991;52.140;5.428;2022-11-21T00:00:48;100632.09;;;2.00;98.19
72116;BME280;59991;52.140;5.428;2022-11-21T00:01:23;100642.22;;;2.03;98.18
72116;BME280;59991;52.140;5.428;2022-11-21T00:01:54;100636.69;;;1.99;97.91
72116;BME280;59991;52.140;5.428;2022-11-21T00:02:26;100640.97;;;2.00;97.78
72116;BME280;59991;52.140;5.428;2022-11-21T00:02:59;100640.97;;;2.00;98.26
72116;BME280;59991;52.140;5.428;2022-11-21T00:03:35;100640.50;;;1.98;97.97
72116;BME280;59991;52.140;5.428;2022-11-21T00:04:07;100637.81;;;1.98;98.00
72116;BME280;59991;52.140;5.428;2022-11-21T00:04:39;100639.25;;;1.96;98.00
72116;BME280;59991;52.140;5.428;2022-11-21T00:05:10;100644.75;;;1.99;98.06
72116;BME280;59991;52.140;5.428;2022-11-21T00:05:44;100641.94;;;1.96;98.08
72116;BME280;59991;52.140;5.428;2022-11-21T00:06:16;100650.16;;;1.99;97.55
72116;BME280;59991;52.140;5.428;2022-11-21T00:06:49;100644.28;;;1.97;97.92
72116;BME280;59991;52.140;5.428;2022-11-21T00:07:22;100647.78;;;1.98;97.76
72116;BME280;59991;52.140;5.428;2022-11-21T00:07:54;100643.50;;;1.97;97.80
72116;BME280;59991;52.140;5.428;2022-11-21T00:08:25;100646.34;;;2.00;98.14
72116;BME280;59991;52.140;5.428;2022-11-21T00:08:56;100641.44;;;2.02;97.92
72116;BME280;59991;52.140;5.428;2022-11-21T00:09:28;100642.06;;;1.99;98.04
72116;BME280;59991;52.140;5.428;2022-11-21T00:09:59;100639.38;;;1.99;98.01
72116;BME280;59991;52.140;5.428;2022-11-21T00:10:31;100639.38;;;1.99;97.68
72116;BME280;59991;52.140;5.428;2022-11-21T00:11:02;100630.84;;;1.97;98.03
72116;BME280;59991;52.140;5.428;2022-11-21T00:11:34;100634.66;;;1.96;97.88
72116;BME280;59991;52.140;5.428;2022-11-21T00:12:05;100630.72;;;1.94;97.81
72116;BME280;59991;52.140;5.428;2022-11-21T00:12:37;100624.91;;;1.92;97.66
72116;BME280;59991;52.140;5.428;2022-11-21T00:13:18;100627.69;;;1.95;98.31
72116;BME280;59991;52.140;5.428;2022-11-21T00:13:50;100631.97;;;1.96;98.06
72116;BME280;59991;52.140;5.428;2022-11-21T00:14:22;100627.22;;;1.93;97.90
72116;BME280;59991;52.140;5.428;2022-11-21T00:14:53;100629.47;;;1.91;98.04
72116;BME280;59991;52.140;5.428;2022-11-21T00:15:25;100636.44;;;1.92;98.06
72116;BME280;59991;52.140;5.428;2022-11-21T00:16:02;100635.66;;;1.92;97.79
72116;BME280;59991;52.140;5.428;2022-11-21T00:16:34;100634.84;;;1.91;98.04
72116;BME280;59991;52.140;5.428;2022-11-21T00:17:06;100634.06;;;1.91;97.69
72116;BME280;59991;52.140;5.428;2022-11-21T00:17:38;100632.16;;;1.91;98.04
72116;BME280;59991;52.140;5.428;2022-11-21T00:18:09;100629.34;;;1.88;97.84
72116;BME280;59991;52.140;5.428;2022-11-21T00:18:44;100636.88;;;1.94;98.06
72116;BME280;59991;52.140;5.428;2022-11-21T00:19:15;100635.75;;;1.95;98.07
72116;BME280;59991;52.140;5.428;2022-11-21T00:19:47;100641.94;;;1.96;98.03
72116;BME280;59991;52.140;5.428;2022-11-21T00:20:20;100655.38;;;1.96;98.14
72116;BME280;59991;52.140;5.428;2022-11-21T00:20:51;100646.19;;;1.97;98.14
72116;BME280;59991;52.140;5.428;2022-11-21T00:21:23;100646.66;;;1.99;97.84
72116;BME280;59991;52.140;5.428;2022-11-21T00:21:54;100652.50;;;2.01;98.14
72116;BME280;59991;52.140;5.428;2022-11-21T00:22:26;100650.94;;;2.00;98.06
72116;BME280;59991;52.140;5.428;2022-11-21T00:22:57;100648.56;;;1.98;97.77
72116;BME280;59991;52.140;5.428;2022-11-21T00:23:28;100648.88;;;1.97;98.11
72116;BME280;59991;52.140;5.428;2022-11-21T00:24:00;100658.22;;;1.99;97.97
72116;BME280;59991;52.140;5.428;2022-11-21T00:24:31;100651.72;;;2.00;97.91
72116;BME280;59991;52.140;5.428;2022-11-21T00:25:03;100651.41;;;2.02;97.65
72116;BME280;59991;52.140;5.428;2022-11-21T00:25:35;100657.09;;;2.00;97.81
72116;BME280;59991;52.140;5.428;2022-11-21T00:26:09;100666.09;;;2.04;98.04
72116;BME280;59991;52.140;5.428;2022-11-21T00:26:41;100662.16;;;2.02;97.83
72116;BME280;59991;52.140;5.428;2022-11-21T00:27:12;100661.38;;;2.01;97.74
72116;BME280;59991;52.140;5.428;2022-11-21T00:27:44;100666.09;;;2.04;97.94
72116;BME280;59991;52.140;5.428;2022-11-21T00:28:15;100659.63;;;2.05;97.99
72116;BME280;59991;52.140;5.428;2022-11-21T00:28:47;100666.09;;;2.04;97.81
72116;BME280;59991;52.140;5.428;2022-11-21T00:29:18;100665.97;;;2.01;97.33
72116;BME280;59991;52.140;5.428;2022-11-21T00:29:50;100659.66;;;1.97;97.26
72116;BME280;59991;52.140;5.428;2022-11-21T00:30:22;100660.13;;;1.99;97.29
72116;BME280;59991;52.140;5.428;2022-11-21T00:30:53;100659.66;;;1.97;97.42
72116;BME280;59991;52.140;5.428;2022-11-21T00:31:25;100652.50;;;2.01;97.45
72116;BME280;59991;52.140;5.428;2022-11-21T00:31:56;100655.53;;;1.99;97.22
72116;BME280;59991;52.140;5.428;2022-11-21T00:32:28;100652.50;;;2.01;97.17
72116;BME280;59991;52.140;5.428;2022-11-21T00:32:59;100653.31;;;2.01;97.43
72116;BME280;59991;52.140;5.428;2022-11-21T00:33:31;100649.03;;;2.00;97.14
72116;BME280;59991;52.140;5.428;2022-11-21T00:34:02;100642.41;;;1.98;97.00
72116;BME280;59991;52.140;5.428;2022-11-21T00:34:34;100655.53;;;1.99;97.07
72116;BME280;59991;52.140;5.428;2022-11-21T00:35:06;100642.88;;;2.00;97.29
72116;BME280;59991;52.140;5.428;2022-11-21T00:35:37;100652.38;;;1.97;96.75
72116;BME280;59991;52.140;5.428;2022-11-21T00:36:09;100648.25;;;2.00;96.83
72116;BME280;59991;52.140;5.428;2022-11-21T00:36:41;100652.50;;;2.01;97.10
72116;BME280;59991;52.140;5.428;2022-11-21T00:37:12;100644.75;;;1.99;96.93
72116;BME280;59991;52.140;5.428;2022-11-21T00:37:44;100664.06;;;2.01;97.36
72116;BME280;59991;52.140;5.428;2022-11-21T00:38:15;100657.41;;;1.99;96.71
72116;BME280;59991;52.140;5.428;2022-11-21T00:38:46;100654.09;;;2.02;96.79
72116;BME280;59991;52.140;5.428;2022-11-21T00:39:18;100652.84;;;1.99;96.75
72116;BME280;59991;52.140;5.428;2022-11-21T00:39:49;100654.88;;;2.02;96.63
72116;BME280;59991;52.140;5.428;2022-11-21T00:40:21;100651.72;;;2.00;97.17
72116;BME280;59991;52.140;5.428;2022-11-21T00:40:52;100650.47;;;1.98;96.71
72116;BME280;59991;52.140;5.428;2022-11-21T00:41:23;100655.84;;;1.98;96.52
72116;BME280;59991;52.140;5.428;2022-11-21T00:41:55;100656.63;;;1.98;96.64
72116;BME280;59991;52.140;5.428;2022-11-21T00:42:26;100645.88;;;1.98;96.77
72116;BME280;59991;52.140;5.428;2022-11-21T00:42:58;100647.47;;;1.99;96.65
72116;BME280;59991;52.140;5.428;2022-11-21T00:43:29;100650.47;;;1.98;96.39
72116;BME280;59991;52.140;5.428;2022-11-21T00:44:01;100651.25;;;1.98;96.96
72116;BME280;59991;52.140;5.428;2022-11-21T00:44:32;100656.63;;;1.98;96.56
72116;BME280;59991;52.140;5.428;2022-11-21T00:45:04;100652.69;;;1.96;96.63
72116;BME280;59991;52.140;5.428;2022-11-21T00:45:36;100657.75;;;1.97;96.78
72116;BME280;59991;52.140;5.428;2022-11-21T00:46:07;100644.16;;;1.94;96.27
72116;BME280;59991;52.140;5.428;2022-11-21T00:46:38;100654.25;;;1.97;96.33
72116;BME280;59991;52.140;5.428;2022-11-21T00:47:10;100643.81;;;1.95;96.45
72116;BME280;59991;52.140;5.428;2022-11-21T00:47:41;100650.31;;;1.94;96.35
72116;BME280;59991;52.140;5.428;2022-11-21T00:48:13;100648.75;;;1.93;96.62
72116;BME280;59991;52.140;5.428;2022-11-21T00:48:44;100668.19;;;1.99;96.61
72116;BME280;59991;52.140;5.428;2022-11-21T00:49:16;100665.50;;;1.99;96.75
72116;BME280;59991;52.140;5.428;2022-11-21T00:49:47;100673.25;;;2.00;96.77
72116;BME280;59991;52.140;5.428;2022-11-21T00:50:19;100665.50;;;1.99;97.27
72116;BME280;59991;52.140;5.428;2022-11-21T00:50:50;100670.06;;;1.98;96.63
72116;BME280;59991;52.140;5.428;2022-11-21T00:51:21;100668.50;;;1.97;97.00
72116;BME280;59991;52.140;5.428;2022-11-21T00:51:53;100665.50;;;1.99;97.03
72116;BME280;59991;52.140;5.428;2022-11-21T00:52:25;100674.81;;;2.01;96.98
72116;BME280;59991;52.140;5.428;2022-11-21T00:52:57;100676.06;;;2.04;97.12
72116;BME280;59991;52.140;5.428;2022-11-21T00:53:29;100677.03;;;1.99;97.18
72116;BME280;59991;52.140;5.428;2022-11-21T00:54:00;100670.56;;;2.00;97.09
72116;BME280;59991;52.140;5.428;2022-11-21T00:54:32;100667.22;;;2.03;96.78
72116;BME280;59991;52.140;5.428;2022-11-21T00:55:03;100671.47;;;2.04;96.81
72116;BME280;59991;52.140;5.428;2022-11-21T00:55:35;100677.97;;;2.03;97.11
72116;BME280;59991;52.140;5.428;2022-11-21T00:56:07;100667.84;;;2.00;96.98
72116;BME280;59991;52.140;5.428;2022-11-21T00:56:39;100672.28;;;2.05;96.87
72116;BME280;59991;52.140;5.428;2022-11-21T00:57:10;100669.13;;;2.03;96.62
72116;BME280;59991;52.140;5.428;2022-11-21T00:57:42;100668.31;;;2.02;97.14
72116;BME280;59991;52.140;5.428;2022-11-21T00:58:13;100666.44;;;2.03;96.85
72116;BME280;59991;52.140;5.428;2022-11-21T00:58:44;100665.97;;;2.01;97.02
72116;BME280;59991;52.140;5.428;2022-11-21T00:59:16;100672.59;;;2.03;96.70
72116;BME280;59991;52.140;5.428;2022-11-21T00:59:47;100667.22;;;2.03;97.11
72116;BME280;59991;52.140;5.428;2022-11-21T01:00:19;100656.00;;;2.01;97.11
72116;BME280;59991;52.140;5.428;2022-11-21T01:00:50;100662.81;;;1.99;97.07
72116;BME280;59991;52.140;5.428;2022-11-21T01:01:22;100664.06;;;2.01;96.98
72116;BME280;59991;52.140;5.428;2022-11-21T01:01:54;100657.09;;;2.00;96.95
72116;BME280;59991;52.140;5.428;2022-11-21T01:02:25;100645.09;;;1.98;97.15
72116;BME280;59991;52.140;5.428;2022-11-21T01:02:57;100656.47;;;2.03;97.06
72116;BME280;59991;52.140;5.428;2022-11-21T01:03:28;100651.09;;;2.03;97.07
72116;BME280;59991;52.140;5.428;2022-11-21T01:04:00;100659.94;;;2.04;97.59
72116;BME280;59991;52.140;5.428;2022-11-21T01:04:33;100651.88;;;2.04;97.05
72116;BME280;59991;52.140;5.428;2022-11-21T01:05:05;100657.25;;;2.04;97.19
72116;BME280;59991;52.140;5.428;2022-11-21T01:05:36;100647.59;;;2.03;97.44
72116;BME280;59991;52.140;5.428;2022-11-21T01:06:10;100648.72;;;2.02;97.22
72116;BME280;59991;52.140;5.428;2022-11-21T01:06:42;100645.22;;;2.01;97.09
72116;BME280;59991;52.140;5.428;2022-11-21T01:07:13;100652.97;;;2.03;97.26
72116;BME280;59991;52.140;5.428;2022-11-21T01:07:47;100656.13;;;2.05;97.25
72116;BME280;59991;52.140;5.428;2022-11-21T01:08:18;100647.94;;;2.01;97.02
72116;BME280;59991;52.140;5.428;2022-11-21T01:08:50;100651.41;;;2.02;97.22
72116;BME280;59991;52.140;5.428;2022-11-21T01:09:21;100654.88;;;2.02;97.25
72116;BME280;59991;52.140;5.428;2022-11-21T01:09:52;100660.56;;;2.01;96.91
72116;BME280;59991;52.140;5.428;2022-11-21T01:10:24;100649.03;;;2.00;97.13
72116;BME280;59991;52.140;5.428;2022-11-21T01:10:55;100658.53;;;1.98;97.28
72116;BME280;59991;52.140;5.428;2022-11-21T01:11:27;100659.66;;;1.97;97.17
72116;BME280;59991;52.140;5.428;2022-11-21T01:11:59;100661.53;;;1.96;97.11
72116;BME280;59991;52.140;5.428;2022-11-21T01:12:31;100656.38;;;1.91;97.24
72116;BME280;59991;52.140;5.428;2022-11-21T01:13:02;100661.88;;;1.95;97.15
72116;BME280;59991;52.140;5.428;2022-11-21T01:13:34;100666.44;;;1.94;97.45
72116;BME280;59991;52.140;5.428;2022-11-21T01:14:06;100668.50;;;1.97;97.29
72116;BME280;59991;52.140;5.428;2022-11-21T01:14:37;100665.03;;;1.97;97.24
72116;BME280;59991;52.140;5.428;2022-11-21T01:15:09;100661.88;;;1.95;97.02
72116;BME280;59991;52.140;5.428;2022-11-21T01:15:40;100652.09;;;1.90;97.22
72116;BME280;59991;52.140;5.428;2022-11-21T01:16:15;100662.66;;;1.95;97.39
72116;BME280;59991;52.140;5.428;2022-11-21T01:16:47;100660.75;;;1.96;97.03
72116;BME280;59991;52.140;5.428;2022-11-21T01:17:18;100655.25;;;1.92;97.29
72116;BME280;59991;52.140;5.428;2022-11-21T01:17:50;100657.94;;;1.92;97.47
72116;BME280;59991;52.140;5.428;2022-11-21T01:18:21;100657.78;;;1.89;97.33
72116;BME280;59991;52.140;5.428;2022-11-21T01:18:53;100660.97;;;1.91;97.18
72116;BME280;59991;52.140;5.428;2022-11-21T01:19:24;100657.47;;;1.90;97.29
72116;BME280;59991;52.140;5.428;2022-11-21T01:19:55;100664.44;;;1.91;97.01
72116;BME280;59991;52.140;5.428;2022-11-21T01:20:27;100655.44;;;1.87;97.65
72116;BME280;59991;52.140;5.428;2022-11-21T01:21:04;100664.44;;;1.91;97.42
72116;BME280;59991;52.140;5.428;2022-11-21T01:21:36;100660.16;;;1.90;97.63
72116;BME280;59991;52.140;5.428;2022-11-21T01:22:07;100657.78;;;1.89;97.35
72116;BME280;59991;52.140;5.428;2022-11-21T01:22:39;100658.28;;;1.91;97.63
72116;BME280;59991;52.140;5.428;2022-11-21T01:23:10;100658.59;;;1.89;97.34
72116;BME280;59991;52.140;5.428;2022-11-21T01:23:42;100658.13;;;1.87;97.43
72116;BME280;59991;52.140;5.428;2022-11-21T01:24:14;100663.19;;;1.89;97.70
72116;BME280;59991;52.140;5.428;2022-11-21T01:24:45;100658.59;;;1.89;97.72
72116;BME280;59991;52.140;5.428;2022-11-21T01:25:17;100653.22;;;1.89;97.96
72116;BME280;59991;52.140;5.428;2022-11-21T01:25:48;100655.56;;;1.91;97.83
72116;BME280;59991;52.140;5.428;2022-11-21T01:26:22;100656.00;;;1.93;97.92
72116;BME280;59991;52.140;5.428;2022-11-21T01:26:54;100651.91;;;1.95;97.70
72116;BME280;59991;52.140;5.428;2022-11-21T01:27:25;100654.13;;;1.93;97.78
72116;BME280;59991;52.140;5.428;2022-11-21T01:27:57;100654.13;;;1.93;97.81
72116;BME280;59991;52.140;5.428;2022-11-21T01:28:28;100656.81;;;1.93;97.56
72116;BME280;59991;52.140;5.428;2022-11-21T01:29:00;100650.63;;;1.93;97.78
72116;BME280;59991;52.140;5.428;2022-11-21T01:29:31;100656.50;;;1.95;97.55
72116;BME280;59991;52.140;5.428;2022-11-21T01:30:03;100649.88;;;1.92;97.46
72116;BME280;59991;52.140;5.428;2022-11-21T01:30:34;100648.63;;;1.90;97.39
72116;BME280;59991;52.140;5.428;2022-11-21T01:31:17;100661.06;;;1.94;97.31
72116;BME280;59991;52.140;5.428;2022-11-21T01:31:48;100654.78;;;1.90;97.33
72116;BME280;59991;52.140;5.428;2022-11-21T01:32:20;100658.72;;;1.93;97.45
72116;BME280;59991;52.140;5.428;2022-11-21T01:32:51;100660.63;;;1.92;97.48
72116;BME280;59991;52.140;5.428;2022-11-21T01:33:23;100654.00;;;1.90;96.95
72116;BME280;59991;52.140;5.428;2022-11-21T01:33:56;100666.00;;;1.92;97.30
72116;BME280;59991;52.140;5.428;2022-11-21T01:34:28;100664.75;;;1.90;97.11
72116;BME280;59991;52.140;5.428;2022-11-21T01:35:00;100661.28;;;1.89;97.49
72116;BME280;59991;52.140;5.428;2022-11-21T01:35:31;100656.22;;;1.88;97.41
72116;BME280;59991;52.140;5.428;2022-11-21T01:36:13;100662.84;;;1.90;97.26
72116;BME280;59991;52.140;5.428;2022-11-21T01:36:46;100654.47;;;1.92;97.66
72116;BME280;59991;52.140;5.428;2022-11-21T01:37:17;100656.22;;;1.88;97.52
72116;BME280;59991;52.140;5.428;2022-11-21T01:37:49;100661.59;;;1.88;97.62
72116;BME280;59991;52.140;5.428;2022-11-21T01:38:21;100657.00;;;1.88;97.33
72116;BME280;59991;52.140;5.428;2022-11-21T01:38:54;100661.75;;;1.91;97.53
72116;BME280;59991;52.140;5.428;2022-11-21T01:39:26;100654.00;;;1.90;97.30
72116;BME280;59991;52.140;5.428;2022-11-21T01:39:57;100647.38;;;1.87;97.07
72116;BME280;59991;52.140;5.428;2022-11-21T01:40:28;100655.44;;;1.87;97.37
72116;BME280;59991;52.140;5.428;2022-11-21T01:41:00;100648.16;;;1.88;97.10
72116;BME280;59991;52.140;5.428;2022-11-21T01:41:36;100652.88;;;1.91;96.96
72116;BME280;59991;52.140;5.428;2022-11-21T01:42:11;100653.69;;;1.91;97.40
72116;BME280;59991;52.140;5.428;2022-11-21T01:42:51;100654.31;;;1.88;97.35
72116;BME280;59991;52.140;5.428;2022-11-21T01:43:23;100648.16;;;1.88;97.20
72116;BME280;59991;52.140;5.428;2022-11-21T01:43:54;100648.16;;;1.88;97.39
72116;BME280;59991;52.140;5.428;2022-11-21T01:44:45;100658.59;;;1.89;97.50
72116;BME280;59991;52.140;5.428;2022-11-21T01:46:28;100660.16;;;1.90;97.45
72116;BME280;59991;52.140;5.428;2022-11-21T01:47:00;100655.91;;;1.89;97.41
72116;BME280;59991;52.140;5.428;2022-11-21T01:47:31;100661.75;;;1.91;97.05
72116;BME280;59991;52.140;5.428;2022-11-21T01:48:03;100658.59;;;1.89;97.57
72116;BME280;59991;52.140;5.428;2022-11-21T01:48:54;100658.28;;;1.91;97.40
72116;BME280;59991;52.140;5.428;2022-11-21T01:49:29;100653.53;;;1.88;97.21
72116;BME280;59991;52.140;5.428;2022-11-21T01:50:02;100657.78;;;1.89;97.37
72116;BME280;59991;52.140;5.428;2022-11-21T01:50:34;100655.09;;;1.89;97.07
72116;BME280;59991;52.140;5.428;2022-11-21T01:51:48;100661.41;;;1.93;97.29
72116;BME280;59991;52.140;5.428;2022-11-21T01:52:27;100659.50;;;1.93;96.96
72116;BME280;59991;52.140;5.428;2022-11-21T01:52:59;100659.84;;;1.92;97.04
72116;BME280;59991;52.140;5.428;2022-11-21T01:53:31;100656.38;;;1.91;96.96
72116;BME280;59991;52.140;5.428;2022-11-21T01:54:09;100644.81;;;1.91;97.07
72116;BME280;59991;52.140;5.428;2022-11-21T01:55:19;100656.50;;;1.95;96.99
72116;BME280;59991;52.140;5.428;2022-11-21T01:55:51;100662.66;;;1.95;97.09
72116;BME280;59991;52.140;5.428;2022-11-21T01:56:24;100651.78;;;1.92;97.00
72116;BME280;59991;52.140;5.428;2022-11-21T01:57:09;100656.50;;;1.95;97.11
72116;BME280;59991;52.140;5.428;2022-11-21T01:57:43;100658.38;;;1.94;97.00
72116;BME280;59991;52.140;5.428;2022-11-21T01:58:19;100649.09;;;1.92;96.85
72116;BME280;59991;52.140;5.428;2022-11-21T01:58:55;100648.31;;;1.91;96.93
72116;BME280;59991;52.140;5.428;2022-11-21T01:59:34;100655.56;;;1.91;96.94
72116;BME280;59991;52.140;5.428;2022-11-21T02:00:10;100646.91;;;1.85;96.59
72116;BME280;59991;52.140;5.428;2022-11-21T02:00:45;100645.31;;;1.84;96.82
72116;BME280;59991;52.140;5.428;2022-11-21T02:01:18;100642.94;;;1.83;96.68
72116;BME280;59991;52.140;5.428;2022-11-21T02:01:50;100645.00;;;1.86;96.66
72116;BME280;59991;52.140;5.428;2022-11-21T02:02:28;100643.41;;;1.85;96.49
72116;BME280;59991;52.140;5.428;2022-11-21T02:03:05;100642.63;;;1.84;96.67
72116;BME280;59991;52.140;5.428;2022-11-21T02:03:40;100646.09;;;1.85;96.83
72116;BME280;59991;52.140;5.428;2022-11-21T02:04:12;100648.47;;;1.86;96.53
72116;BME280;59991;52.140;5.428;2022-11-21T02:04:44;100640.56;;;1.81;97.08
72116;BME280;59991;52.140;5.428;2022-11-21T02:05:23;100638.38;;;1.83;97.02
72116;BME280;59991;52.140;5.428;2022-11-21T02:05:57;100639.78;;;1.81;96.71
72116;BME280;59991;52.140;5.428;2022-11-21T02:06:30;100643.28;;;1.81;96.89
72116;BME280;59991;52.140;5.428;2022-11-21T02:07:05;100638.38;;;1.74;96.62
72116;BME280;59991;52.140;5.428;2022-11-21T02:07:39;100638.72;;;1.73;96.93
72116;BME280;59991;52.140;5.428;2022-11-21T02:08:16;100636.03;;;1.73;97.08
72116;BME280;59991;52.140;5.428;2022-11-21T02:08:49;100641.88;;;1.75;97.00
72116;BME280;59991;52.140;5.428;2022-11-21T02:09:22;100638.38;;;1.74;97.13
72116;BME280;59991;52.140;5.428;2022-11-21T02:09:58;100647.38;;;1.79;97.42
72116;BME280;59991;52.140;5.428;2022-11-21T02:10:30;100640.75;;;1.76;97.64
72116;BME280;59991;52.140;5.428;2022-11-21T02:11:28;100647.53;;;1.82;97.81
72116;BME280;59991;52.140;5.428;2022-11-21T02:12:04;100643.28;;;1.81;97.54
72116;BME280;59991;52.140;5.428;2022-11-21T02:12:52;100642.63;;;1.84;97.53
72116;BME280;59991;52.140;5.428;2022-11-21T02:13:24;100647.22;;;1.84;97.70
72116;BME280;59991;52.140;5.428;2022-11-21T02:13:55;100649.59;;;1.85;97.79
72116;BME280;59991;52.140;5.428;2022-11-21T02:14:27;100644.53;;;1.84;97.54
72116;BME280;59991;52.140;5.428;2022-11-21T02:15:00;100645.78;;;1.86;97.76
72116;BME280;59991;52.140;5.428;2022-11-21T02:15:32;100639.94;;;1.84;97.65
72116;BME280;59991;52.140;5.428;2022-11-21T02:16:03;100639.47;;;1.82;97.46
72116;BME280;59991;52.140;5.428;2022-11-21T02:16:36;100636.00;;;1.82;97.72
72116;BME280;59991;52.140;5.428;2022-11-21T02:17:08;100645.47;;;1.88;97.75
72116;BME280;59991;52.140;5.428;2022-11-21T02:17:40;100640.72;;;1.85;97.73
72116;BME280;59991;52.140;5.428;2022-11-21T02:18:11;100642.31;;;1.86;97.38
72116;BME280;59991;52.140;5.428;2022-11-21T02:18:43;100641.84;;;1.84;97.47
72116;BME280;59991;52.140;5.428;2022-11-21T02:19:22;100650.69;;;1.84;97.53
72116;BME280;59991;52.140;5.428;2022-11-21T02:20:02;100645.03;;;1.77;97.38
72116;BME280;59991;52.140;5.428;2022-11-21T02:20:35;100650.53;;;1.81;97.60
72116;BME280;59991;52.140;5.428;2022-11-21T02:21:22;100655.13;;;1.80;97.28
72116;BME280;59991;52.140;5.428;2022-11-21T02:22:10;100653.22;;;1.81;97.66
72116;BME280;59991;52.140;5.428;2022-11-21T02:24:41;100653.22;;;1.81;97.79
72116;BME280;59991;52.140;5.428;2022-11-21T02:24:45;100654.03;;;1.81;97.54
72116;BME280;59991;52.140;5.428;2022-11-21T02:25:19;100640.75;;;1.76;97.59
72116;BME280;59991;52.140;5.428;2022-11-21T02:25:52;100653.22;;;1.81;97.47
72116;BME280;59991;52.140;5.428;2022-11-21T02:26:24;100643.91;;;1.78;97.34
72116;BME280;59991;52.140;5.428;2022-11-21T02:26:58;100651.97;;;1.78;97.54
72116;BME280;59991;52.140;5.428;2022-11-21T02:27:30;100653.22;;;1.81;97.39
72116;BME280;59991;52.140;5.428;2022-11-21T02:28:05;100652.44;;;1.80;97.77
72116;BME280;59991;52.140;5.428;2022-11-21T02:28:37;100651.66;;;1.80;97.32
72116;BME280;59991;52.140;5.428;2022-11-21T02:29:08;100654.50;;;1.83;97.44
72116;BME280;59991;52.140;5.428;2022-11-21T02:29:40;100652.75;;;1.79;97.51
72116;BME280;59991;52.140;5.428;2022-11-21T02:30:14;100650.72;;;1.76;97.57
72116;BME280;59991;52.140;5.428;2022-11-21T02:30:45;100653.09;;;1.77;97.33
72116;BME280;59991;52.140;5.428;2022-11-21T02:31:17;100648.81;;;1.76;97.65
72116;BME280;59991;52.140;5.428;2022-11-21T02:31:48;100652.75;;;1.79;97.34
72116;BME280;59991;52.140;5.428;2022-11-21T02:32:22;100652.44;;;1.80;97.31
72116;BME280;59991;52.140;5.428;2022-11-21T02:32:54;100652.75;;;1.79;97.52
72116;BME280;59991;52.140;5.428;2022-11-21T02:33:26;100651.34;;;1.81;97.47
72116;BME280;59991;52.140;5.428;2022-11-21T02:33:59;100651.34;;;1.81;98.15
72116;BME280;59991;52.140;5.428;2022-11-21T02:34:31;100654.50;;;1.83;97.69
72116;BME280;59991;52.140;5.428;2022-11-21T02:35:03;100654.16;;;1.85;97.88
72116;BME280;59991;52.140;5.428;2022-11-21T02:35:35;100647.84;;;1.81;97.69
72116;BME280;59991;52.140;5.428;2022-11-21T02:37:02;100656.22;;;1.88;97.88
72116;BME280;59991;52.140;5.428;2022-11-21T02:37:35;100655.09;;;1.89;98.08
72116;BME280;59991;52.140;5.428;2022-11-21T02:38:22;100650.84;;;1.88;97.99
72116;BME280;59991;52.140;5.428;2022-11-21T02:38:55;100645.00;;;1.86;97.90
72116;BME280;59991;52.140;5.428;2022-11-21T02:39:33;100650.06;;;1.87;97.85
72116;BME280;59991;52.140;5.428;2022-11-21T02:40:09;100652.41;;;1.89;97.78
72116;BME280;59991;52.140;5.428;2022-11-21T02:40:51;100643.41;;;1.85;97.95
72116;BME280;59991;52.140;5.428;2022-11-21T02:41:24;100637.72;;;1.86;98.12
72116;BME280;59991;52.140;5.428;2022-11-21T02:42:05;100641.53;;;1.85;98.00
72116;BME280;59991;52.140;5.428;2022-11-21T02:42:45;100640.88;;;1.88;98.28
72116;BME280;59991;52.140;5.428;2022-11-21T02:43:25;100646.25;;;1.88;98.03
72116;BME280;59991;52.140;5.428;2022-11-21T02:44:07;100647.03;;;1.89;98.12
72116;BME280;59991;52.140;5.428;2022-11-21T02:45:26;100645.63;;;1.91;97.68
72116;BME280;59991;52.140;5.428;2022-11-21T02:45:59;100640.41;;;1.86;97.78
72116;BME280;59991;52.140;5.428;2022-11-21T02:46:33;100626.50;;;1.84;98.06
72116;BME280;59991;52.140;5.428;2022-11-21T02:47:05;100637.88;;;1.90;97.68
72116;BME280;59991;52.140;5.428;2022-11-21T02:47:37;100641.03;;;1.92;98.21
72116;BME280;59991;52.140;5.428;2022-11-21T02:48:10;100640.56;;;1.90;97.83
72116;BME280;59991;52.140;5.428;2022-11-21T02:48:42;100626.97;;;1.86;97.93
72116;BME280;59991;52.140;5.428;2022-11-21T02:49:17;100638.97;;;1.89;98.06
72116;BME280;59991;52.140;5.428;2022-11-21T02:50:04;100643.34;;;1.93;97.94
72116;BME280;59991;52.140;5.428;2022-11-21T02:50:41;100633.28;;;1.90;97.63
72116;BME280;59991;52.140;5.428;2022-11-21T02:51:13;100638.19;;;1.88;97.99
72116;BME280;59991;52.140;5.428;2022-11-21T02:51:44;100634.84;;;1.91;97.80
72116;BME280;59991;52.140;5.428;2022-11-21T02:52:16;100620.94;;;1.89;97.61
72116;BME280;59991;52.140;5.428;2022-11-21T02:52:48;100634.06;;;1.91;98.01
72116;BME280;59991;52.140;5.428;2022-11-21T02:53:19;100633.28;;;1.90;97.92
72116;BME280;59991;52.140;5.428;2022-11-21T02:53:50;100636.44;;;1.92;97.63
72116;BME280;59991;52.140;5.428;2022-11-21T02:54:22;100622.06;;;1.88;97.63
72116;BME280;59991;52.140;5.428;2022-11-21T02:54:58;100639.13;;;1.92;97.52
72116;BME280;59991;52.140;5.428;2022-11-21T02:55:30;100636.44;;;1.92;97.77
72116;BME280;59991;52.140;5.428;2022-11-21T02:56:02;100638.34;;;1.92;97.58
72116;BME280;59991;52.140;5.428;2022-11-21T02:56:33;100626.31;;;1.89;97.41
72116;BME280;59991;52.140;5.428;2022-11-21T02:57:05;100628.69;;;1.91;97.54
72116;BME280;59991;52.140;5.428;2022-11-21T02:57:38;100644.94;;;1.94;97.58
72116;BME280;59991;52.140;5.428;2022-11-21T02:58:10;100624.44;;;1.90;97.60
72116;BME280;59991;52.140;5.428;2022-11-21T02:58:41;100631.06;;;1.92;97.54
72116;BME280;59991;52.140;5.428;2022-11-21T02:59:13;100631.81;;;1.93;97.64
72116;BME280;59991;52.140;5.428;2022-11-21T02:59:44;100624.75;;;1.88;97.60
72116;BME280;59991;52.140;5.428;2022-11-21T03:00:16;100623.31;;;1.91;97.03
72116;BME280;59991;52.140;5.428;2022-11-21T03:00:48;100624.75;;;1.88;97.17